sensor_id;sensor_type;location;lat;lon;timestamp;temperature;humidity
10282;DHT22;5186;59.472;18.048;2022-12-13T00:00:42;-1.60;99.90
10282;DHT22;5186;59.472;18.048;2022-12-13T00:03:08;-1.60;99.90
10282;DHT22;5186;59.472;18.048;2022-12-13T00:05:34;-1.60;99.90
10282;DHT22;5186;59.472;18.048;2022-12-13T00:08:00;-1.70;99.90
10282;DHT22;5186;59.472;18.048;2022-12-13T00:10:27;-1.60;99.90
10282;DHT22;5186;59.472;18.048;2022-12-13T00:12:52;-1.70;99.90
10282;DHT22;5186;59.472;18.048;2022-12-13T00:15:18;-1.60;99.90
10282;DHT22;5186;59.472;18.048;2022-12-13T00:17:44;-1.60;99.90
10282;DHT22;5186;59.472;18.048;2022-12-13T00:20:10;-1.60;99.90
10282;DHT22;5186;59.472;18.048;2022-12-13T00:22:36;-1.70;99.90
10282;DHT22;5186;59.472;18.048;2022-12-13T00:25:03;-1.70;99.90
10282;DHT22;5186;59.472;18.048;2022-12-13T00:27:29;-1.70;99.90
10282;DHT22;5186;59.472;18.048;2022-12-13T00:29:54;-1.70;99.90
10282;DHT22;5186;59.472;18.048;2022-12-13T00:32:20;-1.70;99.90
10282;DHT22;5186;59.472;18.048;2022-12-13T00:34:45;-1.70;99.90
10282;DHT22;5186;59.472;18.048;2022-12-13T00:37:11;-1.80;99.90
10282;DHT22;5186;59.472;18.048;2022-12-13T00:39:37;-1.80;99.90
10282;DHT22;5186;59.472;18.048;2022-12-13T00:42:03;-1.70;99.90
10282;DHT22;5186;59.472;18.048;2022-12-13T00:44:28;-1.80;99.90
10282;DHT22;5186;59.472;18.048;2022-12-13T00:46:55;-1.80;99.90
10282;DHT22;5186;59.472;18.048;2022-12-13T00:49:21;-1.80;99.90
10282;DHT22;5186;59.472;18.048;2022-12-13T00:51:46;-1.90;99.90
10282;DHT22;5186;59.472;18.048;2022-12-13T00:54:14;-1.90;99.90
10282;DHT22;5186;59.472;18.048;2022-12-13T00:56:39;-2.00;99.90
10282;DHT22;5186;59.472;18.048;2022-12-13T00:59:05;-2.00;99.90
10282;DHT22;5186;59.472;18.048;2022-12-13T01:01:33;-2.00;99.90
10282;DHT22;5186;59.472;18.048;2022-12-13T01:04:02;-2.10;99.90
10282;DHT22;5186;59.472;18.048;2022-12-13T01:09:03;-2.10;99.90
10282;DHT22;5186;59.472;18.048;2022-12-13T01:11:29;-2.10;99.90
10282;DHT22;5186;59.472;18.048;2022-12-13T01:13:55;-2.10;99.90
10282;DHT22;5186;59.472;18.048;2022-12-13T01:16:20;-2.10;99.90
10282;DHT22;5186;59.472;18.048;2022-12-13T01:18:46;-2.20;99.90
10282;DHT22;5186;59.472;18.048;2022-12-13T01:21:15;-2.20;99.90
10282;DHT22;5186;59.472;18.048;2022-12-13T01:23:42;-2.20;99.90
10282;DHT22;5186;59.472;18.048;2022-12-13T01:26:10;-2.20;99.90
10282;DHT22;5186;59.472;18.048;2022-12-13T01:28:36;-2.30;99.90
10282;DHT22;5186;59.472;18.048;2022-12-13T01:31:04;-2.30;99.90
10282;DHT22;5186;59.472;18.048;2022-12-13T01:33:32;-2.30;99.90
10282;DHT22;5186;59.472;18.048;2022-12-13T01:36:03;-2.30;99.90
10282;DHT22;5186;59.472;18.048;2022-12-13T01:38:29;-2.30;99.90
10282;DHT22;5186;59.472;18.048;2022-12-13T01:40:55;-2.30;99.90
10282;DHT22;5186;59.472;18.048;2022-12-13T01:43:49;-2.40;99.90
10282;DHT22;5186;59.472;18.048;2022-12-13T01:46:16;-2.40;99.90
10282;DHT22;5186;59.472;18.048;2022-12-13T01:49:11;-2.40;99.90
10282;DHT22;5186;59.472;18.048;2022-12-13T01:51:44;-2.30;99.90
10282;DHT22;5186;59.472;18.048;2022-12-13T01:54:14;-2.30;99.90
10282;DHT22;5186;59.472;18.048;2022-12-13T01:56:47;-2.30;99.90
10282;DHT22;5186;59.472;18.048;2022-12-13T01:59:15;-2.40;99.90
10282;DHT22;5186;59.472;18.048;2022-12-13T02:01:42;-2.40;99.90
10282;DHT22;5186;59.472;18.048;2022-12-13T02:04:07;-2.40;99.90
10282;DHT22;5186;59.472;18.048;2022-12-13T02:06:42;-2.40;99.90
10282;DHT22;5186;59.472;18.048;2022-12-13T02:09:09;-2.40;99.90
10282;DHT22;5186;59.472;18.048;2022-12-13T02:11:38;-2.40;99.90
10282;DHT22;5186;59.472;18.048;2022-12-13T02:14:05;-2.40;99.90
10282;DHT22;5186;59.472;18.048;2022-12-13T02:16:55;-2.50;99.90
10282;DHT22;5186;59.472;18.048;2022-12-13T02:19:49;-2.50;99.90
10282;DHT22;5186;59.472;18.048;2022-12-13T02:27:55;-2.50;99.90
10282;DHT22;5186;59.472;18.048;2022-12-13T02:30:28;-2.50;99.90
10282;DHT22;5186;59.472;18.048;2022-12-13T02:38:59;-2.50;99.90
10282;DHT22;5186;59.472;18.048;2022-12-13T02:41:36;-2.40;99.90
10282;DHT22;5186;59.472;18.048;2022-12-13T02:44:23;-2.50;99.90
10282;DHT22;5186;59.472;18.048;2022-12-13T02:47:21;-2.60;99.90
10282;DHT22;5186;59.472;18.048;2022-12-13T02:49:47;-2.50;99.90
10282;DHT22;5186;59.472;18.048;2022-12-13T02:52:16;-2.60;99.90
10282;DHT22;5186;59.472;18.048;2022-12-13T02:54:43;-2.80;99.90
10282;DHT22;5186;59.472;18.048;2022-12-13T02:59:58;-3.00;99.90
10282;DHT22;5186;59.472;18.048;2022-12-13T03:08:21;-3.00;99.90
10282;DHT22;5186;59.472;18.048;2022-12-13T03:11:10;-3.20;99.90
10282;DHT22;5186;59.472;18.048;2022-12-13T03:13:44;-3.20;99.90
10282;DHT22;5186;59.472;18.048;2022-12-13T03:18:46;-3.30;99.90
10282;DHT22;5186;59.472;18.048;2022-12-13T03:21:13;-3.40;99.90
10282;DHT22;5186;59.472;18.048;2022-12-13T03:23:39;-3.50;99.90
10282;DHT22;5186;59.472;18.048;2022-12-13T03:26:10;-3.50;99.90
10282;DHT22;5186;59.472;18.048;2022-12-13T03:28:37;-3.60;99.90
10282;DHT22;5186;59.472;18.048;2022-12-13T03:31:03;-3.60;99.90
10282;DHT22;5186;59.472;18.048;2022-12-13T03:33:29;-3.60;99.90
10282;DHT22;5186;59.472;18.048;2022-12-13T03:35:55;-3.80;99.90
10282;DHT22;5186;59.472;18.048;2022-12-13T03:38:21;-3.80;99.90
10282;DHT22;5186;59.472;18.048;2022-12-13T03:40:46;-3.80;99.90
10282;DHT22;5186;59.472;18.048;2022-12-13T03:43:13;-3.80;99.90
10282;DHT22;5186;59.472;18.048;2022-12-13T03:45:38;-3.90;99.90
10282;DHT22;5186;59.472;18.048;2022-12-13T03:48:04;-4.00;99.90
10282;DHT22;5186;59.472;18.048;2022-12-13T03:50:30;-3.90;99.90
10282;DHT22;5186;59.472;18.048;2022-12-13T03:52:59;-3.90;99.90
10282;DHT22;5186;59.472;18.048;2022-12-13T03:55:26;-4.00;99.90
10282;DHT22;5186;59.472;18.048;2022-12-13T03:57:52;-3.90;99.90
10282;DHT22;5186;59.472;18.048;2022-12-13T04:00:18;-4.00;99.90
10282;DHT22;5186;59.472;18.048;2022-12-13T04:02:44;-4.00;99.90
10282;DHT22;5186;59.472;18.048;2022-12-13T04:05:09;-4.00;99.90
10282;DHT22;5186;59.472;18.048;2022-12-13T04:07:35;-4.00;99.90
10282;DHT22;5186;59.472;18.048;2022-12-13T04:10:02;-4.00;99.90
10282;DHT22;5186;59.472;18.048;2022-12-13T04:12:27;-4.10;99.90
10282;DHT22;5186;59.472;18.048;2022-12-13T04:15:12;-4.10;99.90
10282;DHT22;5186;59.472;18.048;2022-12-13T04:17:37;-4.00;99.90
10282;DHT22;5186;59.472;18.048;2022-12-13T04:20:03;-4.10;99.90
10282;DHT22;5186;59.472;18.048;2022-12-13T04:22:29;-4.10;99.90
10282;DHT22;5186;59.472;18.048;2022-12-13T04:24:54;-4.20;99.90
10282;DHT22;5186;59.472;18.048;2022-12-13T04:27:20;-4.20;99.90
10282;DHT22;5186;59.472;18.048;2022-12-13T04:29:45;-4.20;99.90
10282;DHT22;5186;59.472;18.048;2022-12-13T04:32:11;-4.30;99.90
10282;DHT22;5186;59.472;18.048;2022-12-13T04:34:36;-4.30;99.90
10282;DHT22;5186;59.472;18.048;2022-12-13T04:37:02;-4.30;99.90
10282;DHT22;5186;59.472;18.048;2022-12-13T04:39:27;-4.30;99.90
10282;DHT22;5186;59.472;18.048;2022-12-13T04:41:53;-4.20;99.90
10282;DHT22;5186;59.472;18.048;2022-12-13T04:44:19;-4.30;99.90
10282;DHT22;5186;59.472;18.048;2022-12-13T04:46:44;-4.40;99.90
10282;DHT22;5186;59.472;18.048;2022-12-13T04:49:10;-4.40;99.90
10282;DHT22;5186;59.472;18.048;2022-12-13T04:51:35;-4.40;99.90
10282;DHT22;5186;59.472;18.048;2022-12-13T04:54:01;-4.40;99.90
10282;DHT22;5186;59.472;18.048;2022-12-13T04:56:27;-4.50;99.90
10282;DHT22;5186;59.472;18.048;2022-12-13T04:58:52;-4.50;99.90
10282;DHT22;5186;59.472;18.048;2022-12-13T05:01:18;-4.50;99.90
10282;DHT22;5186;59.472;18.048;2022-12-13T05:03:43;-4.60;99.90
10282;DHT22;5186;59.472;18.048;2022-12-13T05:06:11;-4.50;99.90
10282;DHT22;5186;59.472;18.048;2022-12-13T05:08:37;-4.50;99.90
10282;DHT22;5186;59.472;18.048;2022-12-13T05:11:04;-4.50;99.90
10282;DHT22;5186;59.472;18.048;2022-12-13T05:13:30;-4.60;99.90
10282;DHT22;5186;59.472;18.048;2022-12-13T05:15:57;-4.60;99.90
10282;DHT22;5186;59.472;18.048;2022-12-13T05:18:23;-4.60;99.90
10282;DHT22;5186;59.472;18.048;2022-12-13T05:20:48;-4.60;99.90
10282;DHT22;5186;59.472;18.048;2022-12-13T05:23:16;-4.60;99.90
10282;DHT22;5186;59.472;18.048;2022-12-13T05:25:41;-4.60;99.90
10282;DHT22;5186;59.472;18.048;2022-12-13T05:28:07;-4.70;99.90
10282;DHT22;5186;59.472;18.048;2022-12-13T05:30:33;-4.70;99.90
10282;DHT22;5186;59.472;18.048;2022-12-13T05:32:58;-4.70;99.90
10282;DHT22;5186;59.472;18.048;2022-12-13T05:35:24;-4.70;99.90
10282;DHT22;5186;59.472;18.048;2022-12-13T05:37:50;-4.70;99.90
10282;DHT22;5186;59.472;18.048;2022-12-13T05:40:16;-4.70;99.90
10282;DHT22;5186;59.472;18.048;2022-12-13T05:42:42;-4.80;99.90
10282;DHT22;5186;59.472;18.048;2022-12-13T05:45:08;-4.80;99.90
10282;DHT22;5186;59.472;18.048;2022-12-13T05:47:33;-4.80;99.90
10282;DHT22;5186;59.472;18.048;2022-12-13T05:49:59;-4.80;99.90
10282;DHT22;5186;59.472;18.048;2022-12-13T05:52:25;-4.70;99.90
10282;DHT22;5186;59.472;18.048;2022-12-13T05:54:54;-4.80;99.90
10282;DHT22;5186;59.472;18.048;2022-12-13T05:57:20;-4.80;99.90
10282;DHT22;5186;59.472;18.048;2022-12-13T05:59:46;-4.80;99.90
10282;DHT22;5186;59.472;18.048;2022-12-13T06:02:11;-4.90;99.90
10282;DHT22;5186;59.472;18.048;2022-12-13T06:04:38;-4.90;99.90
10282;DHT22;5186;59.472;18.048;2022-12-13T06:07:04;-4.90;99.90
10282;DHT22;5186;59.472;18.048;2022-12-13T06:09:29;-5.00;99.90
10282;DHT22;5186;59.472;18.048;2022-12-13T06:11:55;-5.00;99.90
10282;DHT22;5186;59.472;18.048;2022-12-13T06:14:20;-5.00;99.90
10282;DHT22;5186;59.472;18.048;2022-12-13T06:16:46;-5.00;99.90
10282;DHT22;5186;59.472;18.048;2022-12-13T06:19:12;-5.00;99.90
10282;DHT22;5186;59.472;18.048;2022-12-13T06:21:37;-5.00;99.90
10282;DHT22;5186;59.472;18.048;2022-12-13T06:24:03;-5.00;99.90
10282;DHT22;5186;59.472;18.048;2022-12-13T06:26:30;-4.90;99.90
10282;DHT22;5186;59.472;18.048;2022-12-13T06:28:55;-5.00;99.90
10282;DHT22;5186;59.472;18.048;2022-12-13T06:31:21;-5.00;99.90
10282;DHT22;5186;59.472;18.048;2022-12-13T06:33:46;-5.00;99.90
10282;DHT22;5186;59.472;18.048;2022-12-13T06:36:12;-5.00;99.90
10282;DHT22;5186;59.472;18.048;2022-12-13T06:38:37;-5.00;99.90
10282;DHT22;5186;59.472;18.048;2022-12-13T06:41:11;-5.00;99.90
10282;DHT22;5186;59.472;18.048;2022-12-13T06:43:40;-5.00;99.90
10282;DHT22;5186;59.472;18.048;2022-12-13T06:46:07;-5.00;99.90
10282;DHT22;5186;59.472;18.048;2022-12-13T06:48:32;-5.00;99.90
10282;DHT22;5186;59.472;18.048;2022-12-13T06:51:00;-4.90;99.90
10282;DHT22;5186;59.472;18.048;2022-12-13T06:53:26;-5.00;99.90
10282;DHT22;5186;59.472;18.048;2022-12-13T06:55:51;-5.00;99.90
10282;DHT22;5186;59.472;18.048;2022-12-13T06:58:17;-5.00;99.90
10282;DHT22;5186;59.472;18.048;2022-12-13T07:00:42;-5.00;99.90
10282;DHT22;5186;59.472;18.048;2022-12-13T07:03:10;-5.00;99.90
10282;DHT22;5186;59.472;18.048;2022-12-13T07:05:37;-5.00;99.90
10282;DHT22;5186;59.472;18.048;2022-12-13T07:08:02;-5.10;99.90
10282;DHT22;5186;59.472;18.048;2022-12-13T07:10:28;-5.10;99.90
10282;DHT22;5186;59.472;18.048;2022-12-13T07:12:54;-5.10;99.90
10282;DHT22;5186;59.472;18.048;2022-12-13T07:15:19;-5.10;99.90
10282;DHT22;5186;59.472;18.048;2022-12-13T07:17:49;-5.10;99.90
10282;DHT22;5186;59.472;18.048;2022-12-13T07:20:15;-5.10;99.90
10282;DHT22;5186;59.472;18.048;2022-12-13T07:22:41;-5.10;99.90
10282;DHT22;5186;59.472;18.048;2022-12-13T07:25:07;-5.10;99.90
10282;DHT22;5186;59.472;18.048;2022-12-13T07:27:33;-5.00;99.90
10282;DHT22;5186;59.472;18.048;2022-12-13T07:29:59;-5.00;99.90
10282;DHT22;5186;59.472;18.048;2022-12-13T07:32:24;-5.00;99.90
10282;DHT22;5186;59.472;18.048;2022-12-13T07:34:50;-5.10;99.90
10282;DHT22;5186;59.472;18.048;2022-12-13T07:37:16;-5.10;99.90
10282;DHT22;5186;59.472;18.048;2022-12-13T07:39:41;-5.00;99.90
10282;DHT22;5186;59.472;18.048;2022-12-13T07:42:07;-5.10;99.90
10282;DHT22;5186;59.472;18.048;2022-12-13T07:44:32;-5.10;99.90
10282;DHT22;5186;59.472;18.048;2022-12-13T07:46:58;-5.10;99.90
10282;DHT22;5186;59.472;18.048;2022-12-13T07:49:23;-5.10;99.90
10282;DHT22;5186;59.472;18.048;2022-12-13T07:51:49;-5.00;99.90
10282;DHT22;5186;59.472;18.048;2022-12-13T07:54:15;-5.00;99.90
10282;DHT22;5186;59.472;18.048;2022-12-13T07:56:41;-5.00;99.90
10282;DHT22;5186;59.472;18.048;2022-12-13T07:59:07;-5.10;99.90
10282;DHT22;5186;59.472;18.048;2022-12-13T08:01:33;-5.10;99.90
10282;DHT22;5186;59.472;18.048;2022-12-13T08:04:00;-5.10;99.90
10282;DHT22;5186;59.472;18.048;2022-12-13T08:06:25;-5.10;99.90
10282;DHT22;5186;59.472;18.048;2022-12-13T08:08:55;-5.10;99.90
10282;DHT22;5186;59.472;18.048;2022-12-13T08:11:21;-5.00;99.90
10282;DHT22;5186;59.472;18.048;2022-12-13T08:13:46;-5.00;99.90
10282;DHT22;5186;59.472;18.048;2022-12-13T08:16:12;-5.10;99.90
10282;DHT22;5186;59.472;18.048;2022-12-13T08:18:42;-5.10;99.90
10282;DHT22;5186;59.472;18.048;2022-12-13T08:21:08;-5.00;99.90
10282;DHT22;5186;59.472;18.048;2022-12-13T08:23:34;-5.00;99.90
10282;DHT22;5186;59.472;18.048;2022-12-13T08:26:00;-5.10;99.90
10282;DHT22;5186;59.472;18.048;2022-12-13T08:28:26;-5.10;99.90
10282;DHT22;5186;59.472;18.048;2022-12-13T08:30:52;-5.10;99.90
10282;DHT22;5186;59.472;18.048;2022-12-13T08:33:18;-5.10;99.90
10282;DHT22;5186;59.472;18.048;2022-12-13T08:35:44;-5.10;99.90
10282;DHT22;5186;59.472;18.048;2022-12-13T08:38:10;-5.10;99.90
10282;DHT22;5186;59.472;18.048;2022-12-13T08:40:36;-5.10;99.90
10282;DHT22;5186;59.472;18.048;2022-12-13T08:43:02;-5.10;99.90
10282;DHT22;5186;59.472;18.048;2022-12-13T08:45:28;-5.10;99.90
10282;DHT22;5186;59.472;18.048;2022-12-13T08:47:56;-5.10;99.90
10282;DHT22;5186;59.472;18.048;2022-12-13T08:50:23;-5.10;99.90
10282;DHT22;5186;59.472;18.048;2022-12-13T08:52:50;-5.10;99.90
10282;DHT22;5186;59.472;18.048;2022-12-13T08:55:15;-5.10;99.90
10282;DHT22;5186;59.472;18.048;2022-12-13T08:57:42;-5.00;99.90
10282;DHT22;5186;59.472;18.048;2022-12-13T09:00:11;-5.10;99.90
10282;DHT22;5186;59.472;18.048;2022-12-13T09:02:36;-5.00;99.90
10282;DHT22;5186;59.472;18.048;2022-12-13T09:05:03;-5.00;99.90
10282;DHT22;5186;59.472;18.048;2022-12-13T09:07:28;-5.10;99.90
10282;DHT22;5186;59.472;18.048;2022-12-13T09:09:54;-5.10;99.90
10282;DHT22;5186;59.472;18.048;2022-12-13T09:12:20;-5.20;99.90
10282;DHT22;5186;59.472;18.048;2022-12-13T09:14:45;-5.20;99.90
10282;DHT22;5186;59.472;18.048;2022-12-13T09:17:13;-5.20;99.90
10282;DHT22;5186;59.472;18.048;2022-12-13T09:19:39;-5.20;99.90
10282;DHT22;5186;59.472;18.048;2022-12-13T09:22:04;-5.20;99.90
10282;DHT22;5186;59.472;18.048;2022-12-13T09:24:30;-5.20;99.90
10282;DHT22;5186;59.472;18.048;2022-12-13T09:26:56;-5.20;99.90
10282;DHT22;5186;59.472;18.048;2022-12-13T09:29:21;-5.20;99.90
10282;DHT22;5186;59.472;18.048;2022-12-13T09:31:47;-5.20;99.90
10282;DHT22;5186;59.472;18.048;2022-12-13T09:34:12;-5.10;99.90
10282;DHT22;5186;59.472;18.048;2022-12-13T09:36:38;-5.20;99.90
10282;DHT22;5186;59.472;18.048;2022-12-13T09:39:04;-5.20;99.90
10282;DHT22;5186;59.472;18.048;2022-12-13T09:41:53;-5.20;99.90
10282;DHT22;5186;59.472;18.048;2022-12-13T09:44:23;-5.10;99.90
10282;DHT22;5186;59.472;18.048;2022-12-13T09:46:51;-5.20;99.90
10282;DHT22;5186;59.472;18.048;2022-12-13T09:49:37;-5.20;99.90
10282;DHT22;5186;59.472;18.048;2022-12-13T09:52:06;-5.20;99.90
10282;DHT22;5186;59.472;18.048;2022-12-13T09:54:35;-5.20;99.90
10282;DHT22;5186;59.472;18.048;2022-12-13T09:57:01;-5.20;99.90
10282;DHT22;5186;59.472;18.048;2022-12-13T09:59:33;-5.30;99.90
10282;DHT22;5186;59.472;18.048;2022-12-13T10:02:20;-5.30;99.90
10282;DHT22;5186;59.472;18.048;2022-12-13T10:04:47;-5.30;99.90
10282;DHT22;5186;59.472;18.048;2022-12-13T10:07:23;-5.30;99.90
10282;DHT22;5186;59.472;18.048;2022-12-13T10:09:58;-5.30;99.90
10282;DHT22;5186;59.472;18.048;2022-12-13T10:12:24;-5.40;99.90
10282;DHT22;5186;59.472;18.048;2022-12-13T10:14:54;-5.40;99.90
10282;DHT22;5186;59.472;18.048;2022-12-13T10:17:22;-5.40;99.90
10282;DHT22;5186;59.472;18.048;2022-12-13T10:19:49;-5.40;99.90
10282;DHT22;5186;59.472;18.048;2022-12-13T10:22:20;-5.40;99.90
10282;DHT22;5186;59.472;18.048;2022-12-13T10:27:16;-5.40;99.90
10282;DHT22;5186;59.472;18.048;2022-12-13T10:32:27;-5.40;99.90
10282;DHT22;5186;59.472;18.048;2022-12-13T10:34:53;-5.40;99.90
10282;DHT22;5186;59.472;18.048;2022-12-13T10:37:27;-5.40;99.90
10282;DHT22;5186;59.472;18.048;2022-12-13T10:39:53;-5.30;99.90
10282;DHT22;5186;59.472;18.048;2022-12-13T10:42:20;-5.30;99.90
10282;DHT22;5186;59.472;18.048;2022-12-13T10:44:46;-5.30;99.90
10282;DHT22;5186;59.472;18.048;2022-12-13T10:47:19;-5.30;99.90
10282;DHT22;5186;59.472;18.048;2022-12-13T10:52:31;-5.30;99.90
10282;DHT22;5186;59.472;18.048;2022-12-13T10:55:03;-5.30;99.90
10282;DHT22;5186;59.472;18.048;2022-12-13T10:57:30;-5.30;99.90
10282;DHT22;5186;59.472;18.048;2022-12-13T10:59:57;-5.20;99.90
10282;DHT22;5186;59.472;18.048;2022-12-13T11:02:38;-5.30;99.90
10282;DHT22;5186;59.472;18.048;2022-12-13T11:05:26;-5.30;99.90
10282;DHT22;5186;59.472;18.048;2022-12-13T11:07:52;-5.20;99.90
10282;DHT22;5186;59.472;18.048;2022-12-13T11:10:21;-5.20;99.90
10282;DHT22;5186;59.472;18.048;2022-12-13T11:12:48;-5.30;99.90
10282;DHT22;5186;59.472;18.048;2022-12-13T11:15:21;-5.30;99.90
10282;DHT22;5186;59.472;18.048;2022-12-13T11:17:50;-5.30;99.90
10282;DHT22;5186;59.472;18.048;2022-12-13T11:20:25;-5.30;99.90
10282;DHT22;5186;59.472;18.048;2022-12-13T11:23:04;-5.30;99.90
10282;DHT22;5186;59.472;18.048;2022-12-13T11:25:42;-5.30;99.90
10282;DHT22;5186;59.472;18.048;2022-12-13T11:28:43;-5.40;99.90
10282;DHT22;5186;59.472;18.048;2022-12-13T11:47:24;-5.40;99.90
10282;DHT22;5186;59.472;18.048;2022-12-13T11:49:52;-5.40;99.90
10282;DHT22;5186;59.472;18.048;2022-12-13T11:52:30;-5.40;99.90
10282;DHT22;5186;59.472;18.048;2022-12-13T11:55:10;-5.40;99.90
10282;DHT22;5186;59.472;18.048;2022-12-13T11:58:11;-5.40;99.90
10282;DHT22;5186;59.472;18.048;2022-12-13T12:00:48;-5.40;99.90
10282;DHT22;5186;59.472;18.048;2022-12-13T12:03:27;-5.50;99.90
10282;DHT22;5186;59.472;18.048;2022-12-13T12:06:08;-5.40;99.90
10282;DHT22;5186;59.472;18.048;2022-12-13T12:08:52;-5.40;99.90
10282;DHT22;5186;59.472;18.048;2022-12-13T12:11:30;-5.50;99.90
10282;DHT22;5186;59.472;18.048;2022-12-13T12:14:04;-5.50;99.90
10282;DHT22;5186;59.472;18.048;2022-12-13T12:16:54;-5.50;99.90
10282;DHT22;5186;59.472;18.048;2022-12-13T12:19:29;-5.40;99.90
10282;DHT22;5186;59.472;18.048;2022-12-13T12:25:43;-5.50;99.90
10282;DHT22;5186;59.472;18.048;2022-12-13T12:37:04;-5.70;99.90
10282;DHT22;5186;59.472;18.048;2022-12-13T12:42:50;-5.70;99.90
10282;DHT22;5186;59.472;18.048;2022-12-13T12:45:37;-5.80;99.90
10282;DHT22;5186;59.472;18.048;2022-12-13T12:57:07;-5.90;99.90
10282;DHT22;5186;59.472;18.048;2022-12-13T13:02:36;-5.90;99.90
10282;DHT22;5186;59.472;18.048;2022-12-13T13:07:44;-6.00;99.90
10282;DHT22;5186;59.472;18.048;2022-12-13T13:10:11;-6.00;99.90
10282;DHT22;5186;59.472;18.048;2022-12-13T13:12:39;-6.00;99.90
10282;DHT22;5186;59.472;18.048;2022-12-13T13:17:59;-6.10;99.90
10282;DHT22;5186;59.472;18.048;2022-12-13T13:20:26;-6.10;99.90
10282;DHT22;5186;59.472;18.048;2022-12-13T13:22:56;-6.20;99.90
10282;DHT22;5186;59.472;18.048;2022-12-13T13:25:31;-6.20;99.90
10282;DHT22;5186;59.472;18.048;2022-12-13T13:28:10;-6.30;99.90
10282;DHT22;5186;59.472;18.048;2022-12-13T13:31:01;-6.30;99.90
10282;DHT22;5186;59.472;18.048;2022-12-13T13:36:02;-6.50;99.90
10282;DHT22;5186;59.472;18.048;2022-12-13T13:38:48;-6.50;99.90
10282;DHT22;5186;59.472;18.048;2022-12-13T13:41:37;-6.40;99.90
10282;DHT22;5186;59.472;18.048;2022-12-13T13:44:30;-6.50;99.90
10282;DHT22;5186;59.472;18.048;2022-12-13T13:52:18;-6.70;99.90
10282;DHT22;5186;59.472;18.048;2022-12-13T13:54:51;-6.70;99.90
10282;DHT22;5186;59.472;18.048;2022-12-13T14:00:58;-6.80;99.90
10282;DHT22;5186;59.472;18.048;2022-12-13T14:03:33;-6.80;99.90
10282;DHT22;5186;59.472;18.048;2022-12-13T14:17:18;-7.00;99.90
10282;DHT22;5186;59.472;18.048;2022-12-13T14:28:30;-7.20;99.90
10282;DHT22;5186;59.472;18.048;2022-12-13T14:30:58;-7.30;99.90
10282;DHT22;5186;59.472;18.048;2022-12-13T14:33:25;-7.30;99.90
10282;DHT22;5186;59.472;18.048;2022-12-13T14:35:56;-7.40;99.90
10282;DHT22;5186;59.472;18.048;2022-12-13T14:38:27;-7.40;99.90
10282;DHT22;5186;59.472;18.048;2022-12-13T14:40:58;-7.40;99.90
10282;DHT22;5186;59.472;18.048;2022-12-13T14:43:27;-7.40;99.90
10282;DHT22;5186;59.472;18.048;2022-12-13T14:45:55;-7.40;99.90
10282;DHT22;5186;59.472;18.048;2022-12-13T14:48:22;-7.40;99.90
10282;DHT22;5186;59.472;18.048;2022-12-13T14:50:48;-7.40;99.90
10282;DHT22;5186;59.472;18.048;2022-12-13T14:56:13;-7.40;99.90
10282;DHT22;5186;59.472;18.048;2022-12-13T14:58:39;-7.40;99.90
10282;DHT22;5186;59.472;18.048;2022-12-13T15:03:52;-7.50;99.90
10282;DHT22;5186;59.472;18.048;2022-12-13T15:06:19;-7.50;99.90
10282;DHT22;5186;59.472;18.048;2022-12-13T15:08:45;-7.50;99.90
10282;DHT22;5186;59.472;18.048;2022-12-13T15:11:12;-7.50;99.90
10282;DHT22;5186;59.472;18.048;2022-12-13T15:13:46;-7.50;99.90
10282;DHT22;5186;59.472;18.048;2022-12-13T15:16:26;-7.50;99.90
10282;DHT22;5186;59.472;18.048;2022-12-13T15:19:25;-7.60;99.90
10282;DHT22;5186;59.472;18.048;2022-12-13T15:21:59;-7.60;99.90
10282;DHT22;5186;59.472;18.048;2022-12-13T15:24:31;-7.70;99.90
10282;DHT22;5186;59.472;18.048;2022-12-13T15:26:58;-7.60;99.90
10282;DHT22;5186;59.472;18.048;2022-12-13T15:29:27;-7.60;99.90
10282;DHT22;5186;59.472;18.048;2022-12-13T15:31:53;-7.60;99.90
10282;DHT22;5186;59.472;18.048;2022-12-13T15:36:56;-7.70;99.90
10282;DHT22;5186;59.472;18.048;2022-12-13T15:39:23;-7.70;99.90
10282;DHT22;5186;59.472;18.048;2022-12-13T15:41:50;-7.70;99.90
10282;DHT22;5186;59.472;18.048;2022-12-13T15:44:27;-7.80;99.90
10282;DHT22;5186;59.472;18.048;2022-12-13T15:47:02;-7.70;99.90
10282;DHT22;5186;59.472;18.048;2022-12-13T15:49:37;-7.70;99.90
10282;DHT22;5186;59.472;18.048;2022-12-13T15:52:21;-7.70;99.90
10282;DHT22;5186;59.472;18.048;2022-12-13T15:57:54;-7.70;99.90
10282;DHT22;5186;59.472;18.048;2022-12-13T16:00:22;-7.70;99.90
10282;DHT22;5186;59.472;18.048;2022-12-13T16:02:57;-7.80;99.90
10282;DHT22;5186;59.472;18.048;2022-12-13T16:05:34;-7.80;99.90
10282;DHT22;5186;59.472;18.048;2022-12-13T16:08:17;-7.70;99.90
10282;DHT22;5186;59.472;18.048;2022-12-13T16:10:48;-7.80;99.90
10282;DHT22;5186;59.472;18.048;2022-12-13T16:13:35;-7.80;99.90
10282;DHT22;5186;59.472;18.048;2022-12-13T16:16:25;-7.80;99.90
10282;DHT22;5186;59.472;18.048;2022-12-13T16:18:56;-7.80;99.90
10282;DHT22;5186;59.472;18.048;2022-12-13T16:21:23;-7.80;99.90
10282;DHT22;5186;59.472;18.048;2022-12-13T16:23:49;-7.80;99.90
10282;DHT22;5186;59.472;18.048;2022-12-13T16:26:26;-7.80;99.90
10282;DHT22;5186;59.472;18.048;2022-12-13T16:28:53;-7.80;99.90
10282;DHT22;5186;59.472;18.048;2022-12-13T16:31:21;-7.80;99.90
10282;DHT22;5186;59.472;18.048;2022-12-13T16:33:48;-7.90;99.90
10282;DHT22;5186;59.472;18.048;2022-12-13T16:36:13;-7.90;99.90
10282;DHT22;5186;59.472;18.048;2022-12-13T16:38:39;-7.90;99.90
10282;DHT22;5186;59.472;18.048;2022-12-13T16:41:05;-7.90;99.90
10282;DHT22;5186;59.472;18.048;2022-12-13T16:43:34;-7.90;99.90
10282;DHT22;5186;59.472;18.048;2022-12-13T16:46:03;-7.90;99.90
10282;DHT22;5186;59.472;18.048;2022-12-13T16:48:29;-7.90;99.90
10282;DHT22;5186;59.472;18.048;2022-12-13T16:50:55;-8.00;99.90
10282;DHT22;5186;59.472;18.048;2022-12-13T16:53:21;-8.00;99.90
10282;DHT22;5186;59.472;18.048;2022-12-13T16:55:46;-8.00;99.90
10282;DHT22;5186;59.472;18.048;2022-12-13T16:58:14;-8.00;99.90
10282;DHT22;5186;59.472;18.048;2022-12-13T17:00:41;-8.10;99.90
10282;DHT22;5186;59.472;18.048;2022-12-13T17:03:08;-8.10;99.90
10282;DHT22;5186;59.472;18.048;2022-12-13T17:05:34;-8.10;99.90
10282;DHT22;5186;59.472;18.048;2022-12-13T17:08:00;-8.10;99.90
10282;DHT22;5186;59.472;18.048;2022-12-13T17:10:27;-8.10;99.90
10282;DHT22;5186;59.472;18.048;2022-12-13T17:12:53;-8.10;99.90
10282;DHT22;5186;59.472;18.048;2022-12-13T17:15:19;-8.20;99.90
10282;DHT22;5186;59.472;18.048;2022-12-13T17:17:45;-8.20;99.90
10282;DHT22;5186;59.472;18.048;2022-12-13T17:20:14;-8.20;99.90
10282;DHT22;5186;59.472;18.048;2022-12-13T17:22:41;-8.20;99.90
10282;DHT22;5186;59.472;18.048;2022-12-13T17:25:07;-8.20;99.90
10282;DHT22;5186;59.472;18.048;2022-12-13T17:27:34;-8.20;99.90
10282;DHT22;5186;59.472;18.048;2022-12-13T17:29:59;-8.20;99.90
10282;DHT22;5186;59.472;18.048;2022-12-13T17:32:26;-8.20;99.90
10282;DHT22;5186;59.472;18.048;2022-12-13T17:34:52;-8.20;99.90
10282;DHT22;5186;59.472;18.048;2022-12-13T17:37:17;-8.20;99.90
10282;DHT22;5186;59.472;18.048;2022-12-13T17:39:43;-8.20;99.90
10282;DHT22;5186;59.472;18.048;2022-12-13T17:42:09;-8.20;99.90
10282;DHT22;5186;59.472;18.048;2022-12-13T17:44:35;-8.30;99.90
10282;DHT22;5186;59.472;18.048;2022-12-13T17:47:00;-8.30;99.90